sensor_id;sensor_type;location;lat;lon;timestamp;pressure;altitude;pressure_sealevel;temperature;humidity
32320;BME280;19080;51.750;5.888;2023-02-05T00:00:26;103446.19;;;7.43;100.00
32320;BME280;19080;51.750;5.888;2023-02-05T00:02:52;103348.56;;;6.95;100.00
32320;BME280;19080;51.750;5.888;2023-02-05T00:05:19;103439.97;;;7.42;100.00
32320;BME280;19080;51.750;5.888;2023-02-05T00:07:46;103393.47;;;7.19;100.00
32320;BME280;19080;51.750;5.888;2023-02-05T00:10:12;103486.63;;;7.67;100.00
32320;BME280;19080;51.750;5.888;2023-02-05T00:12:39;103487.56;;;7.80;100.00
32320;BME280;19080;51.750;5.888;2023-02-05T00:15:06;103364.09;;;7.15;100.00
32320;BME280;19080;51.750;5.888;2023-02-05T00:17:34;103444.59;;;7.58;100.00
32320;BME280;19080;51.750;5.888;2023-02-05T00:20:03;103374.16;;;7.21;100.00
32320;BME280;19080;51.750;5.888;2023-02-05T00:22:30;103418.34;;;7.48;100.00
32320;BME280;19080;51.750;5.888;2023-02-05T00:24:57;103406.34;;;7.40;100.00
32320;BME280;19080;51.750;5.888;2023-02-05T00:27:24;103449.50;;;7.65;100.00
32320;BME280;19080;51.750;5.888;2023-02-05T00:29:50;103365.22;;;7.18;100.00
32320;BME280;19080;51.750;5.888;2023-02-05T00:32:17;103422.00;;;7.50;100.00
32320;BME280;19080;51.750;5.888;2023-02-05T00:34:43;103389.03;;;7.32;100.00
32320;BME280;19080;51.750;5.888;2023-02-05T00:37:10;103309.88;;;6.95;100.00
32320;BME280;19080;51.750;5.888;2023-02-05T00:39:36;103406.75;;;7.46;100.00
32320;BME280;19080;51.750;5.888;2023-02-05T00:42:03;103341.84;;;7.11;100.00
32320;BME280;19080;51.750;5.888;2023-02-05T00:44:30;103389.88;;;7.44;100.00
32320;BME280;19080;51.750;5.888;2023-02-05T00:46:56;103407.19;;;7.65;100.00
32320;BME280;19080;51.750;5.888;2023-02-05T00:49:23;103392.47;;;7.69;100.00
32320;BME280;19080;51.750;5.888;2023-02-05T00:51:50;103350.44;;;7.47;100.00
32320;BME280;19080;51.750;5.888;2023-02-05T00:54:17;103422.50;;;7.96;100.00
32320;BME280;19080;51.750;5.888;2023-02-05T00:56:44;103310.19;;;7.38;100.00
32320;BME280;19080;51.750;5.888;2023-02-05T00:59:11;103387.19;;;7.82;100.00
32320;BME280;19080;51.750;5.888;2023-02-05T01:01:37;103398.47;;;7.79;100.00
32320;BME280;19080;51.750;5.888;2023-02-05T01:04:04;103391.16;;;7.89;100.00
32320;BME280;19080;51.750;5.888;2023-02-05T01:06:31;103396.16;;;7.97;100.00
32320;BME280;19080;51.750;5.888;2023-02-05T01:08:57;103431.25;;;8.21;100.00
32320;BME280;19080;51.750;5.888;2023-02-05T01:11:24;103416.91;;;8.18;100.00
32320;BME280;19080;51.750;5.888;2023-02-05T01:13:50;103344.88;;;7.95;100.00
32320;BME280;19080;51.750;5.888;2023-02-05T01:16:17;103381.19;;;8.24;100.00
32320;BME280;19080;51.750;5.888;2023-02-05T01:18:44;103399.28;;;8.31;100.00
32320;BME280;19080;51.750;5.888;2023-02-05T01:21:10;103366.63;;;8.18;100.00
32320;BME280;19080;51.750;5.888;2023-02-05T01:23:37;103373.84;;;8.20;100.00
32320;BME280;19080;51.750;5.888;2023-02-05T01:26:05;103400.44;;;8.35;100.00
32320;BME280;19080;51.750;5.888;2023-02-05T01:28:31;103313.97;;;7.81;100.00
32320;BME280;19080;51.750;5.888;2023-02-05T01:30:59;103398.38;;;8.31;100.00
32320;BME280;19080;51.750;5.888;2023-02-05T01:33:26;103399.28;;;8.31;100.00
32320;BME280;19080;51.750;5.888;2023-02-05T01:35:52;103336.13;;;7.96;100.00
32320;BME280;19080;51.750;5.888;2023-02-05T01:38:19;103381.38;;;8.27;100.00
32320;BME280;19080;51.750;5.888;2023-02-05T01:40:45;103426.38;;;8.54;100.00
32320;BME280;19080;51.750;5.888;2023-02-05T01:43:14;103419.03;;;8.50;100.00
32320;BME280;19080;51.750;5.888;2023-02-05T01:48:43;103422.47;;;8.62;100.00
32320;BME280;19080;51.750;5.888;2023-02-05T01:51:13;103379.56;;;8.39;100.00
32320;BME280;19080;51.750;5.888;2023-02-05T01:53:41;103406.00;;;8.53;100.00
32320;BME280;19080;51.750;5.888;2023-02-05T01:56:22;103326.53;;;8.11;100.00
32320;BME280;19080;51.750;5.888;2023-02-05T01:59:15;103384.75;;;8.38;100.00
32320;BME280;19080;51.750;5.888;2023-02-05T02:01:39;103327.25;;;8.09;100.00
32320;BME280;19080;51.750;5.888;2023-02-05T02:04:07;103396.47;;;8.41;100.00
32320;BME280;19080;51.750;5.888;2023-02-05T02:06:35;103379.94;;;8.32;100.00
32320;BME280;19080;51.750;5.888;2023-02-05T02:09:04;103431.03;;;8.58;100.00
32320;BME280;19080;51.750;5.888;2023-02-05T02:11:35;103396.66;;;8.44;100.00
32320;BME280;19080;51.750;5.888;2023-02-05T02:14:05;103376.28;;;8.30;100.00
32320;BME280;19080;51.750;5.888;2023-02-05T02:16:34;103413.34;;;8.57;100.00
32320;BME280;19080;51.750;5.888;2023-02-05T02:19:09;103316.06;;;8.13;100.00
32320;BME280;19080;51.750;5.888;2023-02-05T02:21:49;103400.50;;;8.63;100.00
32320;BME280;19080;51.750;5.888;2023-02-05T02:30:28;103403.13;;;8.63;100.00
32320;BME280;19080;51.750;5.888;2023-02-05T02:38:50;103347.56;;;8.50;100.00
32320;BME280;19080;51.750;5.888;2023-02-05T02:41:29;103327.44;;;8.38;100.00
32320;BME280;19080;51.750;5.888;2023-02-05T02:43:58;103282.59;;;8.13;100.00
32320;BME280;19080;51.750;5.888;2023-02-05T02:46:30;103360.91;;;8.51;100.00
32320;BME280;19080;51.750;5.888;2023-02-05T02:51:35;103358.78;;;8.45;100.00
32320;BME280;19080;51.750;5.888;2023-02-05T02:54:07;103328.88;;;8.33;100.00
32320;BME280;19080;51.750;5.888;2023-02-05T02:56:38;103335.47;;;8.40;100.00
32320;BME280;19080;51.750;5.888;2023-02-05T02:59:09;103347.19;;;8.43;100.00
32320;BME280;19080;51.750;5.888;2023-02-05T03:01:39;103368.56;;;8.46;100.00
32320;BME280;19080;51.750;5.888;2023-02-05T03:04:39;103271.53;;;7.93;100.00
32320;BME280;19080;51.750;5.888;2023-02-05T03:07:15;103369.56;;;8.48;100.00
32320;BME280;19080;51.750;5.888;2023-02-05T03:10:07;103258.22;;;7.91;100.00
32320;BME280;19080;51.750;5.888;2023-02-05T03:12:35;103258.94;;;7.89;100.00
32320;BME280;19080;51.750;5.888;2023-02-05T03:15:02;103254.25;;;7.84;100.00
32320;BME280;19080;51.750;5.888;2023-02-05T03:17:29;103326.53;;;8.25;100.00
32320;BME280;19080;51.750;5.888;2023-02-05T03:20:10;103319.22;;;8.21;100.00
32320;BME280;19080;51.750;5.888;2023-02-05T03:22:38;103327.03;;;8.19;100.00
32320;BME280;19080;51.750;5.888;2023-02-05T03:25:05;103344.75;;;8.33;100.00
32320;BME280;19080;51.750;5.888;2023-02-05T03:27:33;103343.84;;;8.33;100.00
32320;BME280;19080;51.750;5.888;2023-02-05T03:30:02;103306.09;;;8.09;100.00
32320;BME280;19080;51.750;5.888;2023-02-05T03:32:43;103362.47;;;8.34;100.00
32320;BME280;19080;51.750;5.888;2023-02-05T03:43:11;103281.94;;;7.76;100.00
32320;BME280;19080;51.750;5.888;2023-02-05T03:51:25;103368.75;;;8.23;100.00
32320;BME280;19080;51.750;5.888;2023-02-05T03:56:41;103383.22;;;8.28;100.00
32320;BME280;19080;51.750;5.888;2023-02-05T03:59:11;103283.66;;;7.76;100.00
32320;BME280;19080;51.750;5.888;2023-02-05T04:01:41;103310.28;;;7.92;100.00
32320;BME280;19080;51.750;5.888;2023-02-05T04:04:08;103337.66;;;8.06;100.00
32320;BME280;19080;51.750;5.888;2023-02-05T04:06:35;103355.13;;;8.17;100.00
32320;BME280;19080;51.750;5.888;2023-02-05T04:09:02;103315.47;;;7.91;100.00
32320;BME280;19080;51.750;5.888;2023-02-05T04:11:29;103366.53;;;8.16;100.00
32320;BME280;19080;51.750;5.888;2023-02-05T04:14:01;103345.56;;;8.06;100.00
32320;BME280;19080;51.750;5.888;2023-02-05T04:16:27;103383.22;;;8.28;100.00
32320;BME280;19080;51.750;5.888;2023-02-05T04:18:55;103375.88;;;8.24;100.00
32320;BME280;19080;51.750;5.888;2023-02-05T04:21:24;103349.25;;;8.08;100.00
32320;BME280;19080;51.750;5.888;2023-02-05T04:23:50;103364.69;;;8.15;100.00
32320;BME280;19080;51.750;5.888;2023-02-05T04:26:18;103366.53;;;8.16;100.00
32320;BME280;19080;51.750;5.888;2023-02-05T04:28:54;103270.97;;;7.57;100.00
32320;BME280;19080;51.750;5.888;2023-02-05T04:31:21;103368.56;;;8.20;100.00
32320;BME280;19080;51.750;5.888;2023-02-05T04:33:48;103374.06;;;8.23;100.00
32320;BME280;19080;51.750;5.888;2023-02-05T04:36:16;103270.13;;;7.71;100.00
32320;BME280;19080;51.750;5.888;2023-02-05T04:38:43;103309.69;;;7.96;100.00
32320;BME280;19080;51.750;5.888;2023-02-05T04:41:09;103334.78;;;8.16;100.00
32320;BME280;19080;51.750;5.888;2023-02-05T04:43:36;103342.31;;;8.23;100.00
32320;BME280;19080;51.750;5.888;2023-02-05T04:46:04;103256.63;;;7.67;100.00
32320;BME280;19080;51.750;5.888;2023-02-05T04:48:31;103352.09;;;8.11;100.00
32320;BME280;19080;51.750;5.888;2023-02-05T04:50:58;103348.63;;;8.12;100.00
32320;BME280;19080;51.750;5.888;2023-02-05T04:53:25;103311.00;;;7.90;100.00
32320;BME280;19080;51.750;5.888;2023-02-05T04:55:51;103285.50;;;7.77;100.00
32320;BME280;19080;51.750;5.888;2023-02-05T04:58:20;103306.72;;;7.92;100.00
32320;BME280;19080;51.750;5.888;2023-02-05T05:00:46;103321.88;;;8.07;100.00
32320;BME280;19080;51.750;5.888;2023-02-05T05:03:13;103240.88;;;7.68;100.00
32320;BME280;19080;51.750;5.888;2023-02-05T05:05:39;103354.63;;;8.23;100.00
32320;BME280;19080;51.750;5.888;2023-02-05T05:08:06;103263.31;;;7.88;100.00
32320;BME280;19080;51.750;5.888;2023-02-05T05:10:33;103362.88;;;8.40;100.00
32320;BME280;19080;51.750;5.888;2023-02-05T05:12:59;103349.22;;;8.21;100.00
32320;BME280;19080;51.750;5.888;2023-02-05T05:15:26;103275.13;;;7.80;100.00
32320;BME280;19080;51.750;5.888;2023-02-05T05:17:52;103322.69;;;8.06;100.00
32320;BME280;19080;51.750;5.888;2023-02-05T05:20:19;103345.03;;;8.25;100.00
32320;BME280;19080;51.750;5.888;2023-02-05T05:22:46;103348.63;;;8.12;100.00
32320;BME280;19080;51.750;5.888;2023-02-05T05:25:12;103342.72;;;8.03;100.00
32320;BME280;19080;51.750;5.888;2023-02-05T05:27:39;103288.25;;;7.78;100.00
32320;BME280;19080;51.750;5.888;2023-02-05T05:30:06;103353.91;;;8.12;100.00
32320;BME280;19080;51.750;5.888;2023-02-05T05:32:33;103339.28;;;8.04;100.00
32320;BME280;19080;51.750;5.888;2023-02-05T05:35:00;103334.28;;;7.95;100.00
32320;BME280;19080;51.750;5.888;2023-02-05T05:37:26;103346.31;;;7.90;100.00
32320;BME280;19080;51.750;5.888;2023-02-05T05:39:53;103345.59;;;7.93;100.00
32320;BME280;19080;51.750;5.888;2023-02-05T05:42:38;103254.38;;;7.33;100.00
32320;BME280;19080;51.750;5.888;2023-02-05T05:45:23;103317.31;;;7.65;100.00
32320;BME280;19080;51.750;5.888;2023-02-05T05:47:50;103365.44;;;7.86;100.00
32320;BME280;19080;51.750;5.888;2023-02-05T05:50:17;103322.59;;;7.65;100.00
32320;BME280;19080;51.750;5.888;2023-02-05T05:52:43;103364.91;;;7.78;100.00
32320;BME280;19080;51.750;5.888;2023-02-05T05:55:10;103322.91;;;7.57;100.00
32320;BME280;19080;51.750;5.888;2023-02-05T05:57:36;103334.81;;;7.63;100.00
32320;BME280;19080;51.750;5.888;2023-02-05T06:00:04;103336.44;;;7.61;100.00
32320;BME280;19080;51.750;5.888;2023-02-05T06:02:40;103343.75;;;7.65;100.00
32320;BME280;19080;51.750;5.888;2023-02-05T06:05:10;103342.94;;;7.79;100.00
32320;BME280;19080;51.750;5.888;2023-02-05T06:07:37;103326.66;;;7.60;100.00
32320;BME280;19080;51.750;5.888;2023-02-05T06:10:03;103336.63;;;7.64;100.00
32320;BME280;19080;51.750;5.888;2023-02-05T06:12:30;103310.81;;;7.47;100.00
32320;BME280;19080;51.750;5.888;2023-02-05T06:14:57;103321.78;;;7.53;100.00
32320;BME280;19080;51.750;5.888;2023-02-05T06:17:23;103317.63;;;7.57;100.00
32320;BME280;19080;51.750;5.888;2023-02-05T06:19:50;103316.09;;;7.47;100.00
32320;BME280;19080;51.750;5.888;2023-02-05T06:22:16;103296.78;;;7.48;100.00
32320;BME280;19080;51.750;5.888;2023-02-05T06:24:43;103304.59;;;7.60;100.00
32320;BME280;19080;51.750;5.888;2023-02-05T06:27:10;103301.25;;;7.62;100.00
32320;BME280;19080;51.750;5.888;2023-02-05T06:29:36;103274.91;;;7.37;100.00
32320;BME280;19080;51.750;5.888;2023-02-05T06:32:03;103313.97;;;7.55;100.00
32320;BME280;19080;51.750;5.888;2023-02-05T06:34:30;103323.63;;;7.54;100.00
32320;BME280;19080;51.750;5.888;2023-02-05T06:36:56;103314.66;;;7.52;100.00
32320;BME280;19080;51.750;5.888;2023-02-05T06:39:23;103324.63;;;7.56;100.00
32320;BME280;19080;51.750;5.888;2023-02-05T06:41:50;103241.06;;;7.05;100.00
32320;BME280;19080;51.750;5.888;2023-02-05T06:44:17;103313.13;;;7.42;100.00
32320;BME280;19080;51.750;5.888;2023-02-05T06:46:43;103334.59;;;7.47;100.00
32320;BME280;19080;51.750;5.888;2023-02-05T06:49:10;103346.38;;;7.52;100.00
32320;BME280;19080;51.750;5.888;2023-02-05T06:51:37;103363.38;;;7.56;100.00
32320;BME280;19080;51.750;5.888;2023-02-05T06:54:03;103380.09;;;7.30;100.00
32320;BME280;19080;51.750;5.888;2023-02-05T06:56:30;103355.84;;;7.10;100.00
32320;BME280;19080;51.750;5.888;2023-02-05T06:58:56;103385.50;;;7.06;100.00
32320;BME280;19080;51.750;5.888;2023-02-05T07:01:23;103367.59;;;6.89;100.00
32320;BME280;19080;51.750;5.888;2023-02-05T07:03:50;103405.91;;;7.09;100.00
32320;BME280;19080;51.750;5.888;2023-02-05T07:06:22;103407.22;;;7.02;100.00
32320;BME280;19080;51.750;5.888;2023-02-05T07:08:50;103425.31;;;7.09;100.00
32320;BME280;19080;51.750;5.888;2023-02-05T07:11:16;103433.25;;;7.09;100.00
32320;BME280;19080;51.750;5.888;2023-02-05T07:13:43;103441.75;;;7.05;100.00
32320;BME280;19080;51.750;5.888;2023-02-05T07:16:09;103419.63;;;6.78;100.00
32320;BME280;19080;51.750;5.888;2023-02-05T07:18:36;103436.38;;;6.79;100.00
32320;BME280;19080;51.750;5.888;2023-02-05T07:21:05;103411.06;;;6.58;100.00
32320;BME280;19080;51.750;5.888;2023-02-05T07:23:32;103400.66;;;6.47;100.00
32320;BME280;19080;51.750;5.888;2023-02-05T07:26:06;103375.91;;;6.34;100.00
32320;BME280;19080;51.750;5.888;2023-02-05T07:28:32;103455.00;;;6.69;100.00
32320;BME280;19080;51.750;5.888;2023-02-05T07:31:16;103416.25;;;6.44;100.00
32320;BME280;19080;51.750;5.888;2023-02-05T07:33:46;103470.59;;;6.77;100.00
32320;BME280;19080;51.750;5.888;2023-02-05T07:36:16;103452.72;;;6.62;100.00
32320;BME280;19080;51.750;5.888;2023-02-05T07:38:44;103445.72;;;6.50;100.00
32320;BME280;19080;51.750;5.888;2023-02-05T07:41:12;103477.28;;;6.61;100.00
32320;BME280;19080;51.750;5.888;2023-02-05T07:43:40;103470.38;;;6.63;100.00
32320;BME280;19080;51.750;5.888;2023-02-05T07:46:09;103397.47;;;6.28;100.00
32320;BME280;19080;51.750;5.888;2023-02-05T07:48:36;103496.72;;;6.86;100.00
32320;BME280;19080;51.750;5.888;2023-02-05T07:51:04;103410.75;;;6.41;100.00
32320;BME280;19080;51.750;5.888;2023-02-05T07:53:31;103506.09;;;6.94;100.00
32320;BME280;19080;51.750;5.888;2023-02-05T07:56:02;103385.53;;;6.33;100.00
32320;BME280;19080;51.750;5.888;2023-02-05T07:58:28;103485.19;;;6.97;100.00
32320;BME280;19080;51.750;5.888;2023-02-05T08:00:59;103479.06;;;6.85;100.00
32320;BME280;19080;51.750;5.888;2023-02-05T08:03:26;103457.34;;;6.89;100.00
32320;BME280;19080;51.750;5.888;2023-02-05T08:05:53;103470.16;;;6.96;100.00
32320;BME280;19080;51.750;5.888;2023-02-05T08:08:20;103529.53;;;7.26;100.00
32320;BME280;19080;51.750;5.888;2023-02-05T08:10:54;103526.78;;;7.25;100.00
32320;BME280;19080;51.750;5.888;2023-02-05T08:13:21;103465.69;;;6.95;100.00
32320;BME280;19080;51.750;5.888;2023-02-05T08:15:48;103511.53;;;7.21;100.00
32320;BME280;19080;51.750;5.888;2023-02-05T08:18:14;103525.03;;;7.37;100.00
32320;BME280;19080;51.750;5.888;2023-02-05T08:20:41;103512.41;;;7.33;100.00
32320;BME280;19080;51.750;5.888;2023-02-05T08:23:07;103507.78;;;7.42;100.00
32320;BME280;19080;51.750;5.888;2023-02-05T08:25:34;103514.09;;;7.44;100.00
32320;BME280;19080;51.750;5.888;2023-02-05T08:28:01;103414.31;;;6.90;100.00
32320;BME280;19080;51.750;5.888;2023-02-05T08:30:28;103533.22;;;7.53;100.00
32320;BME280;19080;51.750;5.888;2023-02-05T08:32:54;103538.72;;;7.56;100.00
32320;BME280;19080;51.750;5.888;2023-02-05T08:35:21;103535.28;;;7.57;100.00
32320;BME280;19080;51.750;5.888;2023-02-05T08:37:47;103436.97;;;7.00;100.00
32320;BME280;19080;51.750;5.888;2023-02-05T08:40:14;103523.84;;;7.45;100.00
32320;BME280;19080;51.750;5.888;2023-02-05T08:42:41;103524.31;;;7.39;100.00
32320;BME280;19080;51.750;5.888;2023-02-05T08:45:08;103508.31;;;7.25;100.00
32320;BME280;19080;51.750;5.888;2023-02-05T08:47:35;103548.22;;;7.41;100.00
32320;BME280;19080;51.750;5.888;2023-02-05T08:50:05;103501.34;;;7.13;100.00
32320;BME280;19080;51.750;5.888;2023-02-05T08:52:32;103548.69;;;7.35;100.00
32320;BME280;19080;51.750;5.888;2023-02-05T08:54:58;103478.47;;;6.89;100.00
32320;BME280;19080;51.750;5.888;2023-02-05T08:57:26;103461.41;;;6.72;100.00
32320;BME280;19080;51.750;5.888;2023-02-05T08:59:54;103540.16;;;7.14;100.00
32320;BME280;19080;51.750;5.888;2023-02-05T09:02:22;103514.09;;;7.07;100.00
32320;BME280;19080;51.750;5.888;2023-02-05T09:04:53;103541.19;;;7.16;100.00
32320;BME280;19080;51.750;5.888;2023-02-05T09:07:33;103511.38;;;6.94;100.00
32320;BME280;19080;51.750;5.888;2023-02-05T09:10:00;103457.31;;;6.64;100.00
32320;BME280;19080;51.750;5.888;2023-02-05T09:12:26;103513.94;;;6.93;100.00
32320;BME280;19080;51.750;5.888;2023-02-05T09:14:53;103528.34;;;7.09;100.00
32320;BME280;19080;51.750;5.888;2023-02-05T09:17:19;103415.34;;;6.44;100.00
32320;BME280;19080;51.750;5.888;2023-02-05T09:19:46;103476.09;;;6.69;100.00
32320;BME280;19080;51.750;5.888;2023-02-05T09:22:13;103571.69;;;7.25;100.00
32320;BME280;19080;51.750;5.888;2023-02-05T09:24:39;103516.97;;;7.10;100.00
32320;BME280;19080;51.750;5.888;2023-02-05T09:27:06;103548.72;;;7.24;100.00
32320;BME280;19080;51.750;5.888;2023-02-05T09:29:33;103450.84;;;6.72;100.00
32320;BME280;19080;51.750;5.888;2023-02-05T09:31:59;103543.91;;;7.30;100.00
32320;BME280;19080;51.750;5.888;2023-02-05T09:34:26;103459.09;;;6.77;100.00
32320;BME280;19080;51.750;5.888;2023-02-05T09:36:52;103562.03;;;7.37;100.00
32320;BME280;19080;51.750;5.888;2023-02-05T09:39:19;103543.19;;;7.32;100.00
32320;BME280;19080;51.750;5.888;2023-02-05T09:42:34;103574.72;;;7.54;100.00
32320;BME280;19080;51.750;5.888;2023-02-05T09:45:19;103580.16;;;7.44;100.00
32320;BME280;19080;51.750;5.888;2023-02-05T09:48:12;103535.16;;;7.31;100.00
32320;BME280;19080;51.750;5.888;2023-02-05T09:50:43;103555.56;;;7.45;100.00
32320;BME280;19080;51.750;5.888;2023-02-05T09:53:12;103492.44;;;7.25;100.00
32320;BME280;19080;51.750;5.888;2023-02-05T09:55:42;103568.94;;;7.84;100.00
32320;BME280;19080;51.750;5.888;2023-02-05T09:58:27;103556.72;;;8.11;100.00
32320;BME280;19080;51.750;5.888;2023-02-05T10:01:02;103581.31;;;8.35;100.00
32320;BME280;19080;51.750;5.888;2023-02-05T10:06:44;103580.72;;;8.53;100.00
32320;BME280;19080;51.750;5.888;2023-02-05T10:15:03;103580.44;;;8.61;100.00
32320;BME280;19080;51.750;5.888;2023-02-05T10:17:54;103585.19;;;8.67;100.00
32320;BME280;19080;51.750;5.888;2023-02-05T10:20:42;103550.69;;;8.52;100.00
32320;BME280;19080;51.750;5.888;2023-02-05T10:23:14;103568.47;;;8.68;100.00
32320;BME280;19080;51.750;5.888;2023-02-05T10:33:45;103418.31;;;7.86;100.00
32320;BME280;19080;51.750;5.888;2023-02-05T10:36:13;103450.38;;;8.04;100.00
32320;BME280;19080;51.750;5.888;2023-02-05T10:38:43;103550.91;;;8.55;100.00
32320;BME280;19080;51.750;5.888;2023-02-05T10:46:41;103567.44;;;8.92;100.00
32320;BME280;19080;51.750;5.888;2023-02-05T10:49:17;103582.22;;;9.02;100.00
32320;BME280;19080;51.750;5.888;2023-02-05T10:51:46;103564.59;;;9.02;100.00
32320;BME280;19080;51.750;5.888;2023-02-05T10:54:17;103582.41;;;9.18;100.00
32320;BME280;19080;51.750;5.888;2023-02-05T10:56:46;103558.66;;;9.20;100.00
32320;BME280;19080;51.750;5.888;2023-02-05T10:59:27;103579.00;;;9.34;100.00
32320;BME280;19080;51.750;5.888;2023-02-05T11:01:56;103595.59;;;9.44;100.00
32320;BME280;19080;51.750;5.888;2023-02-05T11:04:39;103596.59;;;9.46;100.00
32320;BME280;19080;51.750;5.888;2023-02-05T11:07:28;103622.31;;;9.48;100.00
32320;BME280;19080;51.750;5.888;2023-02-05T11:10:00;103559.66;;;9.22;100.00
32320;BME280;19080;51.750;5.888;2023-02-05T11:12:37;103574.16;;;9.13;100.00
32320;BME280;19080;51.750;5.888;2023-02-05T11:15:04;103609.59;;;9.29;100.00
32320;BME280;19080;51.750;5.888;2023-02-05T11:17:42;103577.81;;;9.16;100.00
32320;BME280;19080;51.750;5.888;2023-02-05T11:22:42;103600.66;;;9.13;100.00
32320;BME280;19080;51.750;5.888;2023-02-05T11:25:20;103517.19;;;8.66;100.00
32320;BME280;19080;51.750;5.888;2023-02-05T11:30:24;103577.22;;;8.93;100.00
32320;BME280;19080;51.750;5.888;2023-02-05T11:36:02;103590.53;;;9.90;100.00
32320;BME280;19080;51.750;5.888;2023-02-05T11:41:05;103562.00;;;10.60;100.00
32320;BME280;19080;51.750;5.888;2023-02-05T11:43:37;103547.53;;;10.55;100.00
32320;BME280;19080;51.750;5.888;2023-02-05T11:46:07;103554.66;;;10.56;100.00
32320;BME280;19080;51.750;5.888;2023-02-05T11:48:46;103594.16;;;10.50;100.00
32320;BME280;19080;51.750;5.888;2023-02-05T11:53:58;103578.84;;;10.46;100.00
32320;BME280;19080;51.750;5.888;2023-02-05T11:56:27;103550.25;;;10.25;100.00
32320;BME280;19080;51.750;5.888;2023-02-05T11:59:19;103579.22;;;10.52;100.00
32320;BME280;19080;51.750;5.888;2023-02-05T12:01:47;103601.09;;;10.48;100.00
32320;BME280;19080;51.750;5.888;2023-02-05T12:04:18;103592.63;;;10.24;100.00
32320;BME280;19080;51.750;5.888;2023-02-05T12:09:16;103617.59;;;9.85;100.00
32320;BME280;19080;51.750;5.888;2023-02-05T12:12:21;103613.63;;;9.50;100.00
32320;BME280;19080;51.750;5.888;2023-02-05T12:15:18;103586.59;;;9.14;100.00
32320;BME280;19080;51.750;5.888;2023-02-05T12:18:23;103628.75;;;9.38;100.00
32320;BME280;19080;51.750;5.888;2023-02-05T12:21:08;103624.38;;;9.38;100.00
32320;BME280;19080;51.750;5.888;2023-02-05T12:26:47;103612.03;;;9.67;100.00
32320;BME280;19080;51.750;5.888;2023-02-05T12:29:40;103618.47;;;9.70;100.00
32320;BME280;19080;51.750;5.888;2023-02-05T12:35:46;103609.41;;;9.26;100.00
32320;BME280;19080;51.750;5.888;2023-02-05T12:41:28;103576.22;;;9.73;100.00
32320;BME280;19080;51.750;5.888;2023-02-05T12:46:58;103610.72;;;10.46;100.00
32320;BME280;19080;51.750;5.888;2023-02-05T12:49:42;103610.72;;;10.75;100.00
32320;BME280;19080;51.750;5.888;2023-02-05T12:57:49;103587.75;;;12.36;100.00
32320;BME280;19080;51.750;5.888;2023-02-05T13:00:33;103588.53;;;11.84;100.00
32320;BME280;19080;51.750;5.888;2023-02-05T13:05:55;103612.88;;;11.28;100.00
32320;BME280;19080;51.750;5.888;2023-02-05T13:15:05;103646.72;;;9.98;100.00
32320;BME280;19080;51.750;5.888;2023-02-05T13:17:02;103632.09;;;9.49;100.00
32320;BME280;19080;51.750;5.888;2023-02-05T13:19:41;103653.44;;;9.10;100.00
32320;BME280;19080;51.750;5.888;2023-02-05T13:22:25;103580.53;;;8.50;100.00
32320;BME280;19080;51.750;5.888;2023-02-05T13:25:19;103652.31;;;8.80;100.00
32320;BME280;19080;51.750;5.888;2023-02-05T13:28:30;103640.09;;;8.82;100.00
32320;BME280;19080;51.750;5.888;2023-02-05T13:31:24;103664.75;;;9.08;100.00
32320;BME280;19080;51.750;5.888;2023-02-05T13:33:55;103654.53;;;9.82;100.00
32320;BME280;19080;51.750;5.888;2023-02-05T13:36:30;103673.38;;;10.86;100.00
32320;BME280;19080;51.750;5.888;2023-02-05T13:39:22;103610.09;;;9.92;100.00
32320;BME280;19080;51.750;5.888;2023-02-05T13:42:32;103660.91;;;9.70;100.00
32320;BME280;19080;51.750;5.888;2023-02-05T13:45:25;103658.28;;;9.57;100.00
32320;BME280;19080;51.750;5.888;2023-02-05T13:48:13;103666.41;;;10.88;100.00
32320;BME280;19080;51.750;5.888;2023-02-05T13:59:49;103661.66;;;10.38;100.00
32320;BME280;19080;51.750;5.888;2023-02-05T14:02:39;103697.25;;;10.27;100.00
32320;BME280;19080;51.750;5.888;2023-02-05T14:05:08;103665.22;;;10.24;100.00
32320;BME280;19080;51.750;5.888;2023-02-05T14:10:19;103691.06;;;10.86;100.00
32320;BME280;19080;51.750;5.888;2023-02-05T14:12:48;103657.31;;;11.45;100.00
32320;BME280;19080;51.750;5.888;2023-02-05T14:23:00;103666.47;;;11.50;100.00
32320;BME280;19080;51.750;5.888;2023-02-05T14:28:02;103650.47;;;10.59;100.00
32320;BME280;19080;51.750;5.888;2023-02-05T14:33:00;103616.78;;;10.28;100.00
32320;BME280;19080;51.750;5.888;2023-02-05T14:35:31;103689.41;;;10.73;100.00
32320;BME280;19080;51.750;5.888;2023-02-05T14:38:01;103627.72;;;10.93;100.00
32320;BME280;19080;51.750;5.888;2023-02-05T14:40:32;103650.63;;;11.37;97.93
32320;BME280;19080;51.750;5.888;2023-02-05T14:43:29;103687.22;;;11.41;99.67
32320;BME280;19080;51.750;5.888;2023-02-05T14:46:02;103702.88;;;11.05;100.00
32320;BME280;19080;51.750;5.888;2023-02-05T14:48:33;103594.19;;;10.20;100.00
32320;BME280;19080;51.750;5.888;2023-02-05T14:51:18;103667.41;;;10.46;100.00
32320;BME280;19080;51.750;5.888;2023-02-05T14:53:57;103690.31;;;10.44;100.00
32320;BME280;19080;51.750;5.888;2023-02-05T14:56:32;103704.75;;;10.06;100.00
32320;BME280;19080;51.750;5.888;2023-02-05T14:59:14;103692.00;;;9.73;100.00
32320;BME280;19080;51.750;5.888;2023-02-05T15:01:46;103711.06;;;9.81;100.00
32320;BME280;19080;51.750;5.888;2023-02-05T15:06:56;103694.16;;;9.65;100.00
32320;BME280;19080;51.750;5.888;2023-02-05T15:09:45;103718.72;;;9.76;100.00
32320;BME280;19080;51.750;5.888;2023-02-05T15:12:54;103727.13;;;9.69;100.00
32320;BME280;19080;51.750;5.888;2023-02-05T15:15:28;103694.72;;;9.46;100.00